createdAt,value
2024-04-07T19:07:24.343Z,0.63
2024-04-07T19:09:51.802Z,0.93
2024-04-07T19:12:18.770Z,0.82
2024-04-07T19:14:45.549Z,0.90
2024-04-07T19:17:12.560Z,0.90
2024-04-07T19:19:39.379Z,0.73
2024-04-07T19:22:06.195Z,0.60
2024-04-07T19:24:34.123Z,1.30
2024-04-07T19:27:03.020Z,1.00
2024-04-07T19:29:34.056Z,1.08
2024-04-07T19:32:01.552Z,0.85
2024-04-07T19:34:28.883Z,1.05
2024-04-07T19:36:56.020Z,0.82
2024-04-07T19:39:24.176Z,0.93
2024-04-07T19:41:51.879Z,0.70
2024-04-07T19:44:19.702Z,0.65
2024-04-07T19:46:48.034Z,0.80
2024-04-07T19:49:15.953Z,0.82
2024-04-07T19:51:45.230Z,0.52
2024-04-07T19:54:12.049Z,0.90
2024-04-07T19:56:39.636Z,0.50
2024-04-07T19:59:06.488Z,0.63
2024-04-07T20:01:34.359Z,0.63
2024-04-07T20:04:02.181Z,0.60
2024-04-07T20:11:19.674Z,0.57
2024-04-07T20:17:50.549Z,0.77
2024-04-07T20:20:38.786Z,0.50
2024-04-07T20:23:30.203Z,0.50
2024-04-07T20:25:57.336Z,0.77
2024-04-07T20:28:24.285Z,0.73
2024-04-07T20:30:52.121Z,0.70
2024-04-07T20:33:19.931Z,0.40
2024-04-07T20:35:46.718Z,0.65
2024-04-07T20:38:13.926Z,0.50
2024-04-07T20:40:44.299Z,0.70
2024-04-07T20:43:12.003Z,0.93
2024-04-07T20:45:39.469Z,0.70
2024-04-07T20:48:07.419Z,0.40
2024-04-07T20:50:39.167Z,0.60
2024-04-07T20:53:05.976Z,0.73
2024-04-07T20:55:32.771Z,0.63
2024-04-07T20:57:59.606Z,0.75
2024-04-07T21:00:33.992Z,0.60
2024-04-07T21:03:07.405Z,0.90
2024-04-07T21:05:34.194Z,0.57
2024-04-07T21:08:01.008Z,0.93
2024-04-07T21:10:29.568Z,0.50
2024-04-07T21:12:57.525Z,0.98
2024-04-07T21:15:24.880Z,0.70
2024-04-07T21:17:52.043Z,0.75
2024-04-07T21:20:21.712Z,0.80
2024-04-07T21:22:48.986Z,0.55
2024-04-07T21:25:15.950Z,0.80
2024-04-07T21:27:42.982Z,1.20
2024-04-07T21:30:10.225Z,0.63
2024-04-07T21:32:37.257Z,0.88
2024-04-07T21:35:04.291Z,0.77
2024-04-07T21:37:33.150Z,0.80
2024-04-07T21:39:59.988Z,0.70
2024-04-07T21:42:26.752Z,0.90
2024-04-07T21:44:53.475Z,0.63
2024-04-07T21:47:20.322Z,0.70
2024-04-07T21:49:47.123Z,0.90
2024-04-07T21:52:13.900Z,0.80
2024-04-07T21:54:40.722Z,0.70
2024-04-07T21:57:08.135Z,1.02
2024-04-07T21:59:34.968Z,0.80
2024-04-07T22:02:02.222Z,1.15
2024-04-07T22:04:29.217Z,0.85
2024-04-07T22:06:56.021Z,0.70
2024-04-07T22:09:23.214Z,1.10
2024-04-07T22:11:50.154Z,0.88
2024-04-07T22:14:16.919Z,0.68
2024-04-07T22:16:43.950Z,1.08
2024-04-07T22:19:15.848Z,0.80
2024-04-07T22:21:43.306Z,0.85
2024-04-07T22:24:10.482Z,0.80
2024-04-07T22:26:39.595Z,0.85
2024-04-07T22:29:07.075Z,0.85
2024-04-07T22:31:35.472Z,0.80
2024-04-07T22:34:02.947Z,0.88
2024-04-07T22:36:29.914Z,0.90
2024-04-07T22:38:58.754Z,1.00
2024-04-07T22:41:26.098Z,1.48
2024-04-07T22:43:53.325Z,1.33
2024-04-07T22:46:20.868Z,1.27
2024-04-07T22:48:48.090Z,1.80
2024-04-07T22:51:15.038Z,1.70
2024-04-07T22:53:42.821Z,1.80
2024-04-07T22:56:10.129Z,2.67
2024-04-07T22:58:37.522Z,2.03
2024-04-07T23:01:05.935Z,2.08
2024-04-07T23:03:33.074Z,1.90
2024-04-07T23:06:01.961Z,2.30
2024-04-07T23:08:28.880Z,1.98
2024-04-07T23:11:11.075Z,2.40
2024-04-07T23:13:37.941Z,1.48
2024-04-07T23:16:05.897Z,2.00
2024-04-07T23:18:33.577Z,2.05
2024-04-07T23:21:14.488Z,2.00
2024-04-07T23:23:42.527Z,2.00
2024-04-07T23:26:10.398Z,2.10
2024-04-07T23:28:37.361Z,1.95
2024-04-07T23:31:05.946Z,2.10
2024-04-07T23:33:35.074Z,2.35
2024-04-07T23:36:07.357Z,1.98
2024-04-07T23:38:35.118Z,1.80
2024-04-07T23:41:02.427Z,2.10
2024-04-07T23:43:30.043Z,2.15
2024-04-07T23:45:59.270Z,2.17
2024-04-07T23:48:29.168Z,2.47
2024-04-07T23:50:56.853Z,2.30
2024-04-07T23:53:24.457Z,2.20
2024-04-07T23:55:52.720Z,2.70
2024-04-07T23:58:21.222Z,2.42
